createdAt,value
2019-04-07T00:01:32.211Z,99.71
2019-04-07T00:04:21.498Z,100.00
2019-04-07T00:07:09.533Z,100.00
2019-04-07T00:09:57.987Z,100.00
2019-04-07T00:12:46.502Z,100.00
2019-04-07T00:15:35.231Z,100.00
2019-04-07T00:18:23.023Z,100.00
2019-04-07T00:21:12.486Z,100.00
2019-04-07T00:24:02.409Z,100.00
2019-04-07T00:26:51.287Z,100.00
2019-04-07T00:29:39.590Z,100.00
2019-04-07T00:32:28.446Z,100.00
2019-04-07T00:35:26.486Z,100.00
2019-04-07T00:38:06.283Z,100.00
2019-04-07T00:40:55.459Z,100.00
2019-04-07T00:43:44.537Z,100.00
2019-04-07T00:46:33.237Z,100.00
2019-04-07T00:49:21.735Z,100.00
2019-04-07T00:52:10.823Z,100.00
2019-04-07T00:54:58.921Z,100.00
2019-04-07T00:57:47.117Z,100.00
2019-04-07T01:00:36.616Z,100.00
2019-04-07T01:03:26.043Z,100.00
2019-04-07T01:06:14.611Z,100.00
2019-04-07T01:09:04.510Z,100.00
2019-04-07T01:11:52.812Z,100.00
2019-04-07T01:14:41.853Z,100.00
2019-04-07T01:17:30.406Z,100.00
2019-04-07T01:20:19.480Z,100.00
2019-04-07T01:23:08.131Z,100.00
2019-04-07T01:25:55.970Z,100.00
2019-04-07T01:28:44.926Z,100.00
2019-04-07T01:31:34.140Z,100.00
2019-04-07T01:34:23.971Z,100.00
2019-04-07T01:37:13.611Z,100.00
2019-04-07T01:40:03.041Z,100.00
2019-04-07T01:43:09.362Z,100.00
2019-04-07T01:46:28.671Z,100.00
2019-04-07T01:49:39.090Z,99.31
2019-04-07T01:52:36.456Z,99.60
2019-04-07T01:55:52.193Z,100.00
2019-04-07T01:59:06.698Z,100.00
2019-04-07T02:02:12.596Z,100.00
2019-04-07T02:05:32.279Z,100.00
2019-04-07T02:08:38.625Z,100.00
2019-04-07T02:11:33.920Z,100.00
2019-04-07T02:14:44.452Z,100.00
2019-04-07T02:18:10.134Z,100.00
2019-04-07T02:21:24.891Z,100.00
2019-04-07T02:24:28.414Z,100.00
2019-04-07T02:27:31.784Z,100.00
2019-04-07T02:30:37.556Z,100.00
2019-04-07T02:33:34.971Z,100.00
2019-04-07T02:36:43.097Z,100.00
2019-04-07T02:39:53.494Z,100.00
2019-04-07T02:43:09.119Z,100.00
2019-04-07T02:46:25.509Z,100.00
2019-04-07T02:49:45.642Z,100.00
2019-04-07T02:52:59.415Z,100.00
2019-04-07T02:56:07.790Z,100.00
2019-04-07T02:59:21.366Z,100.00
2019-04-07T03:02:25.040Z,100.00
2019-04-07T03:05:33.299Z,100.00
2019-04-07T03:08:47.486Z,100.00
2019-04-07T03:12:00.378Z,100.00
2019-04-07T03:15:00.588Z,100.00
2019-04-07T03:18:06.971Z,100.00
2019-04-07T03:21:15.877Z,100.00
2019-04-07T03:24:34.960Z,100.00
2019-04-07T03:27:48.715Z,100.00
2019-04-07T03:30:45.444Z,100.00
2019-04-07T03:33:51.929Z,100.00
2019-04-07T03:37:11.684Z,100.00
2019-04-07T03:39:56.928Z,100.00
2019-04-07T03:42:53.992Z,100.00
2019-04-07T03:46:00.689Z,100.00
2019-04-07T03:49:02.040Z,100.00
2019-04-07T03:52:00.055Z,100.00
2019-04-07T03:55:06.645Z,100.00
2019-04-07T03:58:14.935Z,100.00
2019-04-07T04:01:25.506Z,100.00
2019-04-07T04:04:34.272Z,100.00
2019-04-07T04:07:44.105Z,100.00
2019-04-07T04:10:51.647Z,100.00
2019-04-07T04:13:59.218Z,100.00
2019-04-07T04:16:50.769Z,100.00
2019-04-07T04:19:40.667Z,100.00
2019-04-07T04:22:29.335Z,100.00
2019-04-07T04:25:19.160Z,100.00
2019-04-07T04:28:07.876Z,100.00
2019-04-07T04:30:56.728Z,100.00
2019-04-07T04:33:45.064Z,100.00
2019-04-07T04:36:33.602Z,100.00
2019-04-07T04:39:22.787Z,100.00
2019-04-07T04:42:14.156Z,100.00
2019-04-07T04:45:02.690Z,100.00
2019-04-07T04:47:51.637Z,100.00
2019-04-07T04:50:40.576Z,100.00
2019-04-07T04:53:30.791Z,100.00
2019-04-07T04:56:19.941Z,100.00
2019-04-07T04:59:09.409Z,100.00
2019-04-07T05:01:57.809Z,100.00
2019-04-07T05:04:47.056Z,100.00
2019-04-07T05:07:48.838Z,100.00
2019-04-07T05:10:25.304Z,100.00
2019-04-07T05:13:14.049Z,100.00
2019-04-07T05:16:02.627Z,100.00
2019-04-07T05:18:50.457Z,100.00
2019-04-07T05:21:38.388Z,100.00
2019-04-07T05:24:26.929Z,100.00
2019-04-07T05:27:15.042Z,100.00
2019-04-07T05:30:03.469Z,100.00
2019-04-07T05:32:52.372Z,98.90
2019-04-07T05:35:40.972Z,94.21
2019-04-07T05:38:30.226Z,94.33
2019-04-07T05:41:18.735Z,90.78
2019-04-07T05:44:07.753Z,88.29
2019-04-07T05:46:57.053Z,85.17
2019-04-07T05:49:45.350Z,83.64
2019-04-07T05:52:38.584Z,83.94
2019-04-07T05:55:24.388Z,84.00
2019-04-07T05:58:15.519Z,85.48
2019-04-07T06:01:02.826Z,85.58
2019-04-07T06:03:52.209Z,86.97
2019-04-07T06:06:42.039Z,86.97
2019-04-07T06:09:33.533Z,87.26
2019-04-07T06:12:20.327Z,86.61
2019-04-07T06:15:09.680Z,87.61
2019-04-07T06:18:01.099Z,90.76
2019-04-07T06:20:47.758Z,90.37
2019-04-07T06:23:36.445Z,86.86
2019-04-07T06:26:26.519Z,87.04
2019-04-07T06:29:16.060Z,85.41
2019-04-07T06:32:06.194Z,85.78
2019-04-07T06:34:53.877Z,87.05
2019-04-07T06:37:42.961Z,87.51
2019-04-07T06:40:32.182Z,88.94
2019-04-07T06:43:21.130Z,88.99
2019-04-07T06:46:30.804Z,86.91
2019-04-07T06:49:37.298Z,86.99
2019-04-07T06:52:46.908Z,86.75
2019-04-07T06:56:01.323Z,84.05
2019-04-07T06:59:11.868Z,83.79
2019-04-07T07:02:13.300Z,81.42
2019-04-07T07:05:28.969Z,80.13
2019-04-07T07:08:26.901Z,77.50
2019-04-07T07:11:42.835Z,74.87
2019-04-07T07:14:47.501Z,76.59
2019-04-07T07:18:00.623Z,74.61
2019-04-07T07:21:14.509Z,71.27
2019-04-07T07:24:02.931Z,71.61
2019-04-07T07:26:50.841Z,70.94
2019-04-07T07:29:39.864Z,70.80
2019-04-07T07:32:29.148Z,71.29
2019-04-07T07:35:18.048Z,71.77
2019-04-07T07:38:06.027Z,70.79
2019-04-07T07:40:53.991Z,69.78
2019-04-07T07:43:42.429Z,69.93
2019-04-07T07:46:31.016Z,67.86
2019-04-07T07:49:19.395Z,66.06
2019-04-07T07:52:08.052Z,66.48
2019-04-07T07:54:59.796Z,65.59
2019-04-07T07:57:45.367Z,65.88
2019-04-07T08:00:37.169Z,64.61
2019-04-07T08:03:23.932Z,64.08
2019-04-07T08:06:12.565Z,62.81
2019-04-07T08:09:10.806Z,62.69
2019-04-07T08:11:55.300Z,59.97
2019-04-07T08:14:44.819Z,59.51
2019-04-07T08:17:33.948Z,59.53
2019-04-07T08:20:23.149Z,57.83
2019-04-07T08:23:12.192Z,58.05
2019-04-07T08:26:00.670Z,57.15
2019-04-07T08:28:49.396Z,57.10
2019-04-07T08:31:38.290Z,57.67
2019-04-07T08:34:30.503Z,57.34
2019-04-07T08:37:17.887Z,58.56
2019-04-07T08:40:07.685Z,58.17
2019-04-07T08:42:56.137Z,55.99
2019-04-07T08:45:44.903Z,56.93
2019-04-07T08:48:33.429Z,53.00
2019-04-07T08:51:22.383Z,51.19
2019-04-07T08:54:13.829Z,52.20
2019-04-07T08:57:00.849Z,54.52
2019-04-07T08:59:50.674Z,55.28
2019-04-07T09:02:40.004Z,54.84
2019-04-07T09:05:31.035Z,55.66
2019-04-07T09:08:17.938Z,56.17
2019-04-07T09:11:20.012Z,56.09
2019-04-07T09:14:06.466Z,54.12
2019-04-07T09:17:29.274Z,53.67
2019-04-07T09:20:44.274Z,54.54
2019-04-07T09:23:50.601Z,56.65
2019-04-07T09:26:56.295Z,55.85
2019-04-07T09:29:57.667Z,55.35
2019-04-07T09:32:58.784Z,56.93
2019-04-07T09:36:10.175Z,56.79
2019-04-07T09:39:08.378Z,57.05
2019-04-07T09:42:28.001Z,57.07
2019-04-07T09:45:41.416Z,56.53
2019-04-07T09:49:03.469Z,57.19
2019-04-07T09:52:01.018Z,57.59
2019-04-07T09:55:10.656Z,56.34
2019-04-07T09:58:20.358Z,56.28
2019-04-07T10:01:19.901Z,56.30
2019-04-07T10:04:27.471Z,55.33
2019-04-07T10:07:44.005Z,55.81
2019-04-07T10:10:41.600Z,56.66
2019-04-07T10:13:57.792Z,56.98
2019-04-07T10:17:23.315Z,56.87
2019-04-07T10:20:26.357Z,56.03
2019-04-07T10:23:32.140Z,56.03
2019-04-07T10:26:28.243Z,58.06
2019-04-07T10:29:28.043Z,57.77
2019-04-07T10:32:41.729Z,57.87
2019-04-07T10:35:58.297Z,59.07
2019-04-07T10:39:04.833Z,59.06
2019-04-07T10:42:09.823Z,58.65
2019-04-07T10:45:10.780Z,58.81
2019-04-07T10:48:17.930Z,58.93
2019-04-07T10:51:31.995Z,59.20
2019-04-07T10:54:27.031Z,59.73
2019-04-07T10:57:36.929Z,60.32
2019-04-07T11:00:52.663Z,60.71
2019-04-07T11:03:54.845Z,61.01
2019-04-07T11:07:17.455Z,61.72
2019-04-07T11:10:30.677Z,61.92
2019-04-07T11:13:27.791Z,61.25
2019-04-07T11:16:40.472Z,61.13
2019-04-07T11:19:45.987Z,61.08
2019-04-07T11:23:00.934Z,60.88
2019-04-07T11:26:13.996Z,58.81
2019-04-07T11:29:09.510Z,59.24
2019-04-07T11:32:08.759Z,58.64
2019-04-07T11:35:22.193Z,58.04
2019-04-07T11:38:35.378Z,57.57
2019-04-07T11:41:54.828Z,57.68
2019-04-07T11:45:03.111Z,57.08
2019-04-07T11:48:09.992Z,56.58
2019-04-07T11:51:09.652Z,56.67
2019-04-07T11:54:20.160Z,57.00
2019-04-07T11:57:44.768Z,57.34
2019-04-07T12:00:51.390Z,57.02
2019-04-07T12:03:49.203Z,58.94
2019-04-07T12:07:08.880Z,57.39
2019-04-07T12:10:31.885Z,57.15
2019-04-07T12:13:35.699Z,56.72
2019-04-07T12:16:41.380Z,57.66
2019-04-07T12:19:34.006Z,56.36
2019-04-07T12:22:29.667Z,56.58
2019-04-07T12:25:29.352Z,56.68
2019-04-07T12:28:34.374Z,55.92
2019-04-07T12:31:45.012Z,57.41
2019-04-07T12:34:56.631Z,57.37
2019-04-07T12:38:10.050Z,55.57
2019-04-07T12:41:18.346Z,55.27
2019-04-07T12:44:11.538Z,56.24
2019-04-07T12:47:33.216Z,57.11
2019-04-07T12:50:43.655Z,56.45
2019-04-07T12:53:50.575Z,56.42
2019-04-07T12:57:02.558Z,56.42
2019-04-07T13:00:07.344Z,56.20
2019-04-07T13:03:13.909Z,56.49
2019-04-07T13:06:00.646Z,57.01
2019-04-07T13:08:54.909Z,57.08
2019-04-07T13:11:45.735Z,58.61
2019-04-07T13:14:32.397Z,56.28
2019-04-07T13:17:22.170Z,56.52
2019-04-07T13:20:21.221Z,56.78
2019-04-07T13:23:01.545Z,57.66
2019-04-07T13:25:38.568Z,57.95
2019-04-07T13:28:30.862Z,58.00
2019-04-07T13:31:26.490Z,57.13
2019-04-07T13:34:33.774Z,55.09
2019-04-07T13:37:10.086Z,53.50
2019-04-07T13:40:01.909Z,52.22
2019-04-07T13:42:38.991Z,51.92
2019-04-07T13:45:23.297Z,51.27
2019-04-07T13:48:11.562Z,51.17
2019-04-07T13:51:13.749Z,50.76
2019-04-07T13:54:02.158Z,52.47
2019-04-07T13:56:58.142Z,54.03
2019-04-07T13:59:45.304Z,53.84
2019-04-07T14:02:31.565Z,51.46
2019-04-07T14:05:27.289Z,52.80
2019-04-07T14:08:16.964Z,55.65
2019-04-07T14:10:58.222Z,54.77
2019-04-07T14:13:51.096Z,55.00
2019-04-07T14:16:46.483Z,55.04
2019-04-07T14:19:38.638Z,54.42
2019-04-07T14:22:19.273Z,54.86
2019-04-07T14:24:56.721Z,54.40
2019-04-07T14:27:46.227Z,54.74
2019-04-07T14:30:41.233Z,54.70
2019-04-07T14:33:23.027Z,55.39
2019-04-07T14:36:25.068Z,56.36
2019-04-07T14:39:08.526Z,57.17
2019-04-07T14:41:49.804Z,58.64
2019-04-07T14:44:26.151Z,58.99
2019-04-07T14:47:15.019Z,58.98
2019-04-07T14:49:56.158Z,58.45
2019-04-07T14:52:37.200Z,60.03
2019-04-07T14:55:41.932Z,60.10
2019-04-07T14:58:19.254Z,61.22
2019-04-07T15:01:03.448Z,62.21
2019-04-07T15:03:31.753Z,63.05
2019-04-07T15:06:01.784Z,63.91
2019-04-07T15:08:53.700Z,64.45
2019-04-07T15:11:32.306Z,65.00
2019-04-07T15:14:02.805Z,65.18
2019-04-07T15:16:33.976Z,66.17
2019-04-07T15:19:05.558Z,66.92
2019-04-07T15:21:36.307Z,67.15
2019-04-07T15:24:08.473Z,67.41
2019-04-07T15:26:38.953Z,68.04
2019-04-07T15:29:10.799Z,68.58
2019-04-07T15:31:41.837Z,69.19
2019-04-07T15:34:14.135Z,69.27
2019-04-07T15:36:43.968Z,69.44
2019-04-07T15:39:14.010Z,70.06
2019-04-07T15:41:44.487Z,70.73
2019-04-07T15:44:16.501Z,70.89
2019-04-07T15:46:52.388Z,71.53
2019-04-07T15:49:18.455Z,71.58
2019-04-07T15:51:49.795Z,71.90
2019-04-07T15:54:23.336Z,71.20
2019-04-07T15:56:52.838Z,71.99
2019-04-07T15:59:23.210Z,71.68
2019-04-07T16:01:57.330Z,71.14
2019-04-07T16:04:29.607Z,71.60
2019-04-07T16:07:00.243Z,71.97
2019-04-07T16:09:39.693Z,72.01
2019-04-07T16:12:03.708Z,71.93
2019-04-07T16:14:34.069Z,72.14
2019-04-07T16:17:06.340Z,72.25
2019-04-07T16:19:42.223Z,72.70
2019-04-07T16:22:11.259Z,72.71
2019-04-07T16:24:39.630Z,72.97
2019-04-07T16:27:10.879Z,72.38
2019-04-07T16:29:41.177Z,72.94
2019-04-07T16:32:12.456Z,73.41
2019-04-07T16:34:43.643Z,73.30
2019-04-07T16:37:14.519Z,73.09
2019-04-07T16:39:44.654Z,73.49
2019-04-07T16:42:15.442Z,73.58
2019-04-07T16:44:45.980Z,73.72
2019-04-07T16:47:22.495Z,73.82
2019-04-07T16:49:49.012Z,73.94
2019-04-07T16:52:19.050Z,74.52
2019-04-07T16:54:49.039Z,74.72
2019-04-07T16:57:18.977Z,74.79
2019-04-07T16:59:49.130Z,75.21
2019-04-07T17:02:19.472Z,75.62
2019-04-07T17:04:50.457Z,75.84
2019-04-07T17:07:22.178Z,75.92
2019-04-07T17:09:54.971Z,76.63
2019-04-07T17:12:24.241Z,76.66
2019-04-07T17:14:54.296Z,76.96
2019-04-07T17:17:27.060Z,77.80
2019-04-07T17:19:59.449Z,77.87
2019-04-07T17:22:29.092Z,78.22
2019-04-07T17:25:02.050Z,77.77
2019-04-07T17:27:31.456Z,78.26
2019-04-07T17:30:03.343Z,78.56
2019-04-07T17:32:35.685Z,79.12
2019-04-07T17:35:07.283Z,79.55
2019-04-07T17:37:37.934Z,79.65
2019-04-07T17:40:14.760Z,79.71
2019-04-07T17:42:48.162Z,80.16
2019-04-07T17:45:33.353Z,80.05
2019-04-07T17:48:21.340Z,80.54
2019-04-07T17:51:10.070Z,81.26
2019-04-07T17:54:12.218Z,81.39
2019-04-07T17:56:55.006Z,81.71
2019-04-07T18:00:00.253Z,82.38
2019-04-07T18:02:47.607Z,82.07
2019-04-07T18:05:39.303Z,81.95
2019-04-07T18:08:19.903Z,81.32
2019-04-07T18:11:09.914Z,81.74
2019-04-07T18:14:07.837Z,82.15
2019-04-07T18:16:55.563Z,80.87
2019-04-07T18:19:35.177Z,79.71
2019-04-07T18:22:28.671Z,80.40
2019-04-07T18:25:14.914Z,81.40
2019-04-07T18:27:54.582Z,81.97
2019-04-07T18:30:53.832Z,82.44
2019-04-07T18:33:50.749Z,82.78
2019-04-07T18:36:45.948Z,83.31
2019-04-07T18:39:57.446Z,84.05
2019-04-07T18:42:44.366Z,83.83
2019-04-07T18:45:36.507Z,84.33
2019-04-07T18:48:35.982Z,84.73
2019-04-07T18:51:25.184Z,85.06
2019-04-07T18:54:26.910Z,84.72
2019-04-07T18:57:15.300Z,85.51
2019-04-07T19:00:05.443Z,83.47
2019-04-07T19:02:54.701Z,83.04
2019-04-07T19:05:42.618Z,84.13
2019-04-07T19:08:34.938Z,85.57
2019-04-07T19:11:26.562Z,84.82
2019-04-07T19:14:30.525Z,85.22
2019-04-07T19:17:05.726Z,86.13
2019-04-07T19:19:53.882Z,86.01
2019-04-07T19:22:46.533Z,86.57
2019-04-07T19:25:33.661Z,87.14
2019-04-07T19:28:26.153Z,87.94
2019-04-07T19:31:27.632Z,87.78
2019-04-07T19:34:17.254Z,88.04
2019-04-07T19:37:20.171Z,87.80
2019-04-07T19:40:04.336Z,90.09
2019-04-07T19:42:50.555Z,89.67
2019-04-07T19:45:48.965Z,89.18
2019-04-07T19:48:42.752Z,89.16
2019-04-07T19:51:31.901Z,88.97
2019-04-07T19:54:19.002Z,89.59
2019-04-07T19:57:04.754Z,90.00
2019-04-07T20:00:26.117Z,89.90
2019-04-07T20:03:30.663Z,91.07
2019-04-07T20:06:47.269Z,91.35
2019-04-07T20:09:48.029Z,91.73
2019-04-07T20:12:45.163Z,91.30
2019-04-07T20:15:47.791Z,91.59
2019-04-07T20:19:04.473Z,91.92
2019-04-07T20:22:16.371Z,92.54
2019-04-07T20:25:31.624Z,92.04
2019-04-07T20:28:35.856Z,92.03
2019-04-07T20:31:42.816Z,92.65
2019-04-07T20:34:50.500Z,92.57
2019-04-07T20:38:12.639Z,93.43
2019-04-07T20:41:16.112Z,93.68
2019-04-07T20:44:32.552Z,93.71
2019-04-07T20:47:36.150Z,93.51
2019-04-07T20:50:43.565Z,93.94
2019-04-07T20:53:47.572Z,94.32
2019-04-07T20:57:09.483Z,94.41
2019-04-07T21:00:08.144Z,94.82
2019-04-07T21:03:21.448Z,94.42
2019-04-07T21:06:27.486Z,94.37
2019-04-07T21:09:33.383Z,95.10
2019-04-07T21:12:48.312Z,95.38
2019-04-07T21:15:57.374Z,95.67
2019-04-07T21:18:56.395Z,95.68
2019-04-07T21:22:06.807Z,96.32
2019-04-07T21:25:23.874Z,96.81
2019-04-07T21:28:18.277Z,97.08
2019-04-07T21:31:22.894Z,97.75
2019-04-07T21:34:20.753Z,98.06
2019-04-07T21:37:23.757Z,98.52
2019-04-07T21:40:22.907Z,98.37
2019-04-07T21:43:29.940Z,98.28
2019-04-07T21:46:37.032Z,97.76
2019-04-07T21:49:51.482Z,97.75
2019-04-07T21:53:01.338Z,97.90
2019-04-07T21:56:03.899Z,98.23
2019-04-07T21:59:08.603Z,98.68
2019-04-07T22:02:17.471Z,98.76
2019-04-07T22:05:37.063Z,97.87
2019-04-07T22:08:30.525Z,98.24
2019-04-07T22:11:22.599Z,98.34
2019-04-07T22:14:08.866Z,98.56
2019-04-07T22:16:57.339Z,97.71
2019-04-07T22:19:47.061Z,97.67
2019-04-07T22:22:35.283Z,97.77
2019-04-07T22:25:30.851Z,98.63
2019-04-07T22:28:19.319Z,98.77
2019-04-07T22:31:12.859Z,98.36
2019-04-07T22:34:01.023Z,97.93
2019-04-07T22:36:48.220Z,98.60
2019-04-07T22:39:37.549Z,98.95
2019-04-07T22:42:26.090Z,99.28
2019-04-07T22:45:14.933Z,99.77
2019-04-07T22:48:03.511Z,100.00
2019-04-07T22:50:51.879Z,100.00
2019-04-07T22:53:40.177Z,100.00
2019-04-07T22:56:29.855Z,99.04
2019-04-07T22:59:20.464Z,99.70
2019-04-07T23:02:08.782Z,99.74
2019-04-07T23:04:57.340Z,99.49
2019-04-07T23:07:45.904Z,100.00
2019-04-07T23:10:34.468Z,100.00
2019-04-07T23:13:23.773Z,100.00
2019-04-07T23:16:15.120Z,100.00
2019-04-07T23:19:01.466Z,100.00
2019-04-07T23:21:51.266Z,100.00
2019-04-07T23:24:39.696Z,100.00
2019-04-07T23:27:29.726Z,100.00
2019-04-07T23:30:19.398Z,100.00
2019-04-07T23:33:08.344Z,100.00
2019-04-07T23:35:56.347Z,100.00
2019-04-07T23:38:43.993Z,100.00
2019-04-07T23:41:32.625Z,100.00
2019-04-07T23:44:21.424Z,100.00
2019-04-07T23:47:09.768Z,100.00
2019-04-07T23:49:58.682Z,100.00
2019-04-07T23:52:47.554Z,100.00
2019-04-07T23:55:36.280Z,100.00
2019-04-07T23:58:24.109Z,100.00
